Jalma Topic — A8IQ6 — position and weather

sailwx.info

Track history (hours):
 
Tides and Currents Weather Stations Pressure Air Temp Water Temp Dewpoint Dewpoint Depression Visibility Wind Speed Wind Dir Waves Ship Positions

Jalma Topic

Last reported at 2015-Aug-25 15:32 UTC. Time now 2015-Sep-02 02:27 UTC.
Position N 31°05' E 122°29'.

Length 183 m; draft 8 m.

Type: Cargo ship. MMSI: 636012871.

Date/timePositionNaut miles runAvg speedWind from/ knotsBaromVisibWave heightAir tempDewpointWater temp
2015-Aug-25 15:32N 31°05' E 122°29'1111.0
2015-Aug-25 14:32N 31°07' E 122°17'1414.5
2015-Aug-25 13:33N 31°14' E 122°02'1312.6
2015-Aug-25 12:33N 31°17' E 121°48'8 7.6
2015-Aug-25 11:33N 31°21' E 121°40'7 7.2
2015-Aug-25 10:33N 31°24' E 121°33'7 7.2
2015-Aug-25 09:33N 31°29' E 121°26'8 8.2
2015-Aug-25 08:33N 31°34' E 121°19'1212.0
2015-Aug-25 07:33N 31°42' E 121°08'1312.1
2015-Aug-25 06:26N 31°49' E 120°55'1112.9
2015-Aug-25 05:33N 31°60' E 120°50'2 1.7
2015-Aug-25 04:33N 32°00' E 120°48'0 0.0
2015-Aug-25 01:19N 32°00' E 120°48'0 0.0
2015-Aug-24 23:28N 32°00' E 120°48'0 0.0
2015-Aug-24 22:31N 32°00' E 120°48'0 0.0
2015-Aug-24 20:25N 32°00' E 120°48'0 0.0
2015-Aug-24 10:28N 32°00' E 120°48'0 0.0
2015-Aug-24 09:32N 32°00' E 120°48'0 0.0
2015-Aug-24 07:19N 32°00' E 120°48'0 0.0
2015-Aug-24 06:31N 32°00' E 120°48'0 0.0
2015-Aug-24 04:22N 32°00' E 120°48'0 0.0
2015-Aug-24 02:14N 32°00' E 120°48'0 0.1
2015-Aug-24 01:26N 32°00' E 120°48'0 0.0
2015-Aug-24 00:31N 32°00' E 120°48'0 0.0
2015-Aug-23 23:31N 32°00' E 120°48'0 0.1
2015-Aug-23 22:28N 32°00' E 120°48'0 0.0
2015-Aug-23 21:16N 32°00' E 120°48'0 0.0
2015-Aug-23 19:25N 32°00' E 120°48'0 0.0
2015-Aug-23 16:26N 32°00' E 120°48'0 0.1
2015-Aug-23 15:28N 32°00' E 120°48'0 0.0
2015-Aug-23 14:31N 32°00' E 120°48'0 0.0
2015-Aug-23 13:32N 32°00' E 120°48'0 0.1
2015-Aug-23 10:31N 32°00' E 120°47'0 0.1
2015-Aug-23 07:31N 32°00' E 120°48'0 0.0
2015-Aug-23 04:28N 32°00' E 120°48'0 0.0
2015-Aug-23 03:25N 32°00' E 120°48'0 0.0
2015-Aug-23 02:25N 32°00' E 120°48'0 0.0
2015-Aug-23 01:31N 32°00' E 120°48'0 0.1
2015-Aug-23 00:31N 32°00' E 120°48'0 0.1
2015-Aug-22 23:19N 32°00' E 120°48'0 0.1
2015-Aug-22 22:25N 32°00' E 120°48'0 0.1
2015-Aug-22 21:28N 32°00' E 120°48'0 0.1
2015-Aug-22 20:28N 32°00' E 120°48'0 0.1
2015-Aug-22 19:31N 32°00' E 120°48'0 0.0
2015-Aug-22 18:14N 32°00' E 120°48'0 0.0
2015-Aug-22 17:19N 32°00' E 120°48'0 0.0
2015-Aug-22 16:25N 32°00' E 120°48'0 0.0
2015-Aug-22 13:22N 32°00' E 120°48'0 0.1
2015-Aug-22 12:28N 32°00' E 120°48'0 0.2
2015-Aug-22 11:28N 32°00' E 120°47'0 0.0
2015-Aug-22 05:28N 32°00' E 120°48'0 0.1
2015-Aug-22 04:31N 32°00' E 120°48'0 0.0
2015-Aug-22 02:31N 32°00' E 120°48'0 0.0
2015-Aug-22 01:28N 32°00' E 120°48'0 0.1
2015-Aug-22 00:31N 32°00' E 120°48'0 0.2
2015-Aug-21 23:31N 32°00' E 120°47'0 0.0
2015-Aug-21 22:31N 32°00' E 120°47'0 0.0
2015-Aug-21 21:31N 32°00' E 120°47'0 0.2
2015-Aug-21 20:31N 32°00' E 120°48'0 0.0
2015-Aug-21 19:25N 32°00' E 120°48'0 0.0
2015-Aug-21 18:28N 32°00' E 120°48'0 0.0
2015-Aug-21 17:22N 32°00' E 120°48'0 0.0
2015-Aug-21 16:31N 32°00' E 120°48'0 0.0
2015-Aug-21 15:31N 32°00' E 120°48'0 0.0
2015-Aug-21 12:32N 32°00' E 120°48'0 0.2
2015-Aug-21 11:32N 32°00' E 120°47'0 0.0
2015-Aug-21 10:32N 32°00' E 120°47'0 0.0
2015-Aug-21 09:10N 32°00' E 120°47'0 0.1
2015-Aug-21 07:31N 32°00' E 120°48'0 0.0
2015-Aug-21 04:31N 32°00' E 120°48'0 0.0
2015-Aug-21 02:31N 32°00' E 120°48'0 0.0
2015-Aug-21 00:31N 32°00' E 120°48'0 0.0
2015-Aug-20 23:31N 32°00' E 120°48'0 0.1
2015-Aug-20 22:25N 32°00' E 120°47'0 0.0
2015-Aug-20 21:31N 32°00' E 120°47'0 0.1
2015-Aug-20 20:28N 32°00' E 120°48'0 0.1
2015-Aug-20 19:28N 32°00' E 120°48'3 0.9
2015-Aug-20 15:29N 31°58' E 120°51'11 9.0
2015-Aug-20 14:16N 31°48' E 120°56'7 9.4
2015-Aug-20 13:33N 31°46' E 121°03'1010.0
2015-Aug-20 12:33N 31°40' E 121°12'1010.4
2015-Aug-20 11:33N 31°33' E 121°21'1010.5
2015-Aug-20 10:33N 31°26' E 121°30'7 7.3
2015-Aug-20 09:33N 31°22' E 121°38'9 8.9
2015-Aug-20 08:33N 31°18' E 121°47'1313.3
2015-Aug-20 07:33N 31°15' E 122°02'1312.8
2015-Aug-20 06:33N 31°08' E 122°15'10 9.8
2015-Aug-20 05:33N 31°07' E 122°26'1110.6
2015-Aug-20 04:33N 31°07' E 122°39'  
Track history (hours):
 
Tides and Currents Weather Stations Pressure Air Temp Water Temp Dewpoint Dewpoint Depression Visibility Wind Speed Wind Dir Waves Ship Positions

Jalma Topic

Last reported at 2015-Aug-25 15:32 UTC. Time now 2015-Sep-02 02:27 UTC.
Position N 31°05' E 122°29'.

Length 183 m; draft 8 m.

Type: Cargo ship. MMSI: 636012871.

Date/timePositionNaut miles runAvg speedWind from/ knotsBaromVisibWave heightAir tempDewpointWater temp
2015-Aug-25 15:32N 31°05' E 122°29'1111.0
2015-Aug-25 14:32N 31°07' E 122°17'1414.5
2015-Aug-25 13:33N 31°14' E 122°02'1312.6
2015-Aug-25 12:33N 31°17' E 121°48'8 7.6
2015-Aug-25 11:33N 31°21' E 121°40'7 7.2
2015-Aug-25 10:33N 31°24' E 121°33'7 7.2
2015-Aug-25 09:33N 31°29' E 121°26'8 8.2
2015-Aug-25 08:33N 31°34' E 121°19'1212.0
2015-Aug-25 07:33N 31°42' E 121°08'1312.1
2015-Aug-25 06:26N 31°49' E 120°55'1112.9
2015-Aug-25 05:33N 31°60' E 120°50'2 1.7
2015-Aug-25 04:33N 32°00' E 120°48'0 0.0
2015-Aug-25 01:19N 32°00' E 120°48'0 0.0
2015-Aug-24 23:28N 32°00' E 120°48'0 0.0
2015-Aug-24 22:31N 32°00' E 120°48'0 0.0
2015-Aug-24 20:25N 32°00' E 120°48'0 0.0
2015-Aug-24 10:28N 32°00' E 120°48'0 0.0
2015-Aug-24 09:32N 32°00' E 120°48'0 0.0
2015-Aug-24 07:19N 32°00' E 120°48'0 0.0
2015-Aug-24 06:31N 32°00' E 120°48'0 0.0
2015-Aug-24 04:22N 32°00' E 120°48'0 0.0
2015-Aug-24 02:14N 32°00' E 120°48'0 0.1
2015-Aug-24 01:26N 32°00' E 120°48'0 0.0
2015-Aug-24 00:31N 32°00' E 120°48'0 0.0
2015-Aug-23 23:31N 32°00' E 120°48'0 0.1
2015-Aug-23 22:28N 32°00' E 120°48'0 0.0
2015-Aug-23 21:16N 32°00' E 120°48'0 0.0
2015-Aug-23 19:25N 32°00' E 120°48'0 0.0
2015-Aug-23 16:26N 32°00' E 120°48'0 0.1
2015-Aug-23 15:28N 32°00' E 120°48'0 0.0
2015-Aug-23 14:31N 32°00' E 120°48'0 0.0
2015-Aug-23 13:32N 32°00' E 120°48'0 0.1
2015-Aug-23 10:31N 32°00' E 120°47'0 0.1
2015-Aug-23 07:31N 32°00' E 120°48'0 0.0
2015-Aug-23 04:28N 32°00' E 120°48'0 0.0
2015-Aug-23 03:25N 32°00' E 120°48'0 0.0
2015-Aug-23 02:25N 32°00' E 120°48'0 0.0
2015-Aug-23 01:31N 32°00' E 120°48'0 0.1
2015-Aug-23 00:31N 32°00' E 120°48'0 0.1
2015-Aug-22 23:19N 32°00' E 120°48'0 0.1
2015-Aug-22 22:25N 32°00' E 120°48'0 0.1
2015-Aug-22 21:28N 32°00' E 120°48'0 0.1
2015-Aug-22 20:28N 32°00' E 120°48'0 0.1
2015-Aug-22 19:31N 32°00' E 120°48'0 0.0
2015-Aug-22 18:14N 32°00' E 120°48'0 0.0
2015-Aug-22 17:19N 32°00' E 120°48'0 0.0
2015-Aug-22 16:25N 32°00' E 120°48'0 0.0
2015-Aug-22 13:22N 32°00' E 120°48'0 0.1
2015-Aug-22 12:28N 32°00' E 120°48'0 0.2
2015-Aug-22 11:28N 32°00' E 120°47'0 0.0
2015-Aug-22 05:28N 32°00' E 120°48'0 0.1
2015-Aug-22 04:31N 32°00' E 120°48'0 0.0
2015-Aug-22 02:31N 32°00' E 120°48'0 0.0
2015-Aug-22 01:28N 32°00' E 120°48'0 0.1
2015-Aug-22 00:31N 32°00' E 120°48'0 0.2
2015-Aug-21 23:31N 32°00' E 120°47'0 0.0
2015-Aug-21 22:31N 32°00' E 120°47'0 0.0
2015-Aug-21 21:31N 32°00' E 120°47'0 0.2
2015-Aug-21 20:31N 32°00' E 120°48'0 0.0
2015-Aug-21 19:25N 32°00' E 120°48'0 0.0
2015-Aug-21 18:28N 32°00' E 120°48'0 0.0
2015-Aug-21 17:22N 32°00' E 120°48'0 0.0
2015-Aug-21 16:31N 32°00' E 120°48'0 0.0
2015-Aug-21 15:31N 32°00' E 120°48'0 0.0
2015-Aug-21 12:32N 32°00' E 120°48'0 0.2
2015-Aug-21 11:32N 32°00' E 120°47'0 0.0
2015-Aug-21 10:32N 32°00' E 120°47'0 0.0
2015-Aug-21 09:10N 32°00' E 120°47'0 0.1
2015-Aug-21 07:31N 32°00' E 120°48'0 0.0
2015-Aug-21 04:31N 32°00' E 120°48'0 0.0
2015-Aug-21 02:31N 32°00' E 120°48'0 0.0
2015-Aug-21 00:31N 32°00' E 120°48'0 0.0
2015-Aug-20 23:31N 32°00' E 120°48'0 0.1
2015-Aug-20 22:25N 32°00' E 120°47'0 0.0
2015-Aug-20 21:31N 32°00' E 120°47'0 0.1
2015-Aug-20 20:28N 32°00' E 120°48'0 0.1
2015-Aug-20 19:28N 32°00' E 120°48'3 0.9
2015-Aug-20 15:29N 31°58' E 120°51'11 9.0
2015-Aug-20 14:16N 31°48' E 120°56'7 9.4
2015-Aug-20 13:33N 31°46' E 121°03'1010.0
2015-Aug-20 12:33N 31°40' E 121°12'1010.4
2015-Aug-20 11:33N 31°33' E 121°21'1010.5
2015-Aug-20 10:33N 31°26' E 121°30'7 7.3
2015-Aug-20 09:33N 31°22' E 121°38'9 8.9
2015-Aug-20 08:33N 31°18' E 121°47'1313.3
2015-Aug-20 07:33N 31°15' E 122°02'1312.8
2015-Aug-20 06:33N 31°08' E 122°15'10 9.8
2015-Aug-20 05:33N 31°07' E 122°26'1110.6
2015-Aug-20 04:33N 31°07' E 122°39'  

Dump ship's entire track history